createdAt,value
2023-02-16T00:01:26.664Z,18.90
2023-02-16T00:03:58.487Z,18.00
2023-02-16T00:06:29.659Z,20.20
2023-02-16T00:08:59.643Z,19.40
2023-02-16T00:11:53.922Z,20.60
2023-02-16T00:14:26.916Z,20.40
2023-02-16T00:16:58.502Z,18.00
2023-02-16T00:19:34.112Z,19.60
2023-02-16T00:22:06.434Z,17.30
2023-02-16T00:24:35.954Z,15.30
2023-02-16T00:27:14.375Z,18.30
2023-02-16T00:29:45.942Z,17.60
2023-02-16T00:32:15.977Z,17.10
2023-02-16T00:34:46.986Z,17.00
2023-02-16T00:37:17.413Z,20.20
2023-02-16T00:39:47.260Z,17.80
2023-02-16T00:42:25.290Z,18.00
2023-02-16T00:44:58.075Z,19.10
2023-02-16T00:47:47.399Z,16.10
2023-02-16T00:50:21.287Z,13.90
2023-02-16T00:52:51.355Z,16.90
2023-02-16T00:55:24.201Z,15.70
2023-02-16T00:58:14.495Z,16.20
2023-02-16T01:00:48.374Z,13.50
2023-02-16T01:03:22.128Z,16.00
2023-02-16T01:06:12.065Z,15.10
2023-02-16T01:09:00.456Z,14.50
2023-02-16T01:11:30.373Z,13.40
2023-02-16T01:14:00.068Z,16.30
2023-02-16T01:16:51.002Z,16.10
2023-02-16T01:19:23.223Z,15.10
2023-02-16T01:21:52.358Z,14.90
2023-02-16T01:24:22.456Z,16.00
2023-02-16T01:26:52.757Z,15.40
2023-02-16T01:29:23.485Z,17.30
2023-02-16T01:31:57.020Z,17.40
2023-02-16T01:34:26.829Z,13.70
2023-02-16T01:36:55.955Z,20.00
2023-02-16T01:39:26.152Z,22.90
2023-02-16T01:41:59.259Z,26.60
2023-02-16T01:44:46.955Z,31.70
2023-02-16T01:47:29.748Z,34.20
2023-02-16T01:50:03.375Z,38.50
2023-02-16T01:52:44.247Z,41.20
2023-02-16T01:55:18.273Z,41.80
2023-02-16T01:58:12.104Z,43.00
2023-02-16T02:00:56.895Z,42.20
2023-02-16T02:03:52.631Z,41.00
2023-02-16T02:06:35.617Z,40.70
2023-02-16T02:09:17.760Z,40.00
2023-02-16T02:11:53.045Z,36.90
2023-02-16T02:14:33.796Z,39.10
2023-02-16T02:17:18.433Z,34.80
2023-02-16T02:20:06.510Z,31.90
2023-02-16T02:23:29.915Z,29.60
2023-02-16T02:26:39.665Z,27.40
2023-02-16T02:29:52.116Z,28.90
2023-02-16T02:32:27.903Z,25.10
2023-02-16T02:35:24.656Z,25.10
2023-02-16T02:38:04.672Z,23.10
2023-02-16T02:40:45.794Z,22.80
2023-02-16T02:43:40.042Z,24.10
2023-02-16T02:46:35.729Z,21.30
2023-02-16T02:49:05.846Z,19.30
2023-02-16T02:51:40.965Z,19.90
2023-02-16T02:54:38.975Z,20.40
2023-02-16T02:57:38.724Z,19.60
2023-02-16T03:00:44.914Z,20.30
2023-02-16T03:03:24.644Z,19.00
2023-02-16T03:06:09.128Z,18.90
2023-02-16T03:08:44.214Z,19.60
2023-02-16T03:11:38.040Z,21.90
2023-02-16T03:14:32.776Z,19.30
2023-02-16T03:17:29.629Z,21.80
2023-02-16T03:20:20.943Z,19.10
2023-02-16T03:23:10.769Z,19.70
2023-02-16T03:26:00.181Z,18.40
2023-02-16T03:28:50.823Z,20.80
2023-02-16T03:31:29.596Z,18.60
2023-02-16T03:33:59.830Z,16.90
2023-02-16T03:36:33.970Z,18.20
2023-02-16T03:39:06.249Z,17.50
2023-02-16T03:41:42.195Z,19.30
2023-02-16T03:44:11.559Z,17.80
2023-02-16T03:46:41.651Z,21.30
2023-02-16T03:49:12.893Z,25.60
2023-02-16T03:51:43.063Z,27.30
2023-02-16T03:54:13.602Z,31.40
2023-02-16T03:56:43.213Z,34.40
2023-02-16T03:59:13.086Z,35.80
2023-02-16T04:01:43.136Z,37.50
2023-02-16T04:04:13.241Z,36.80
2023-02-16T04:06:43.564Z,29.40
2023-02-16T04:09:13.286Z,37.00
2023-02-16T04:12:02.413Z,28.90
2023-02-16T04:14:32.593Z,31.90
2023-02-16T04:17:04.293Z,32.50
2023-02-16T04:19:34.124Z,32.40
2023-02-16T04:22:03.143Z,28.20
2023-02-16T04:24:32.846Z,29.60
2023-02-16T04:27:02.186Z,29.90
2023-02-16T04:29:32.389Z,30.60
2023-02-16T04:32:05.498Z,29.70
2023-02-16T04:34:34.753Z,30.60
2023-02-16T04:37:06.499Z,28.90
2023-02-16T04:39:36.391Z,24.70
2023-02-16T04:42:06.677Z,24.00
2023-02-16T04:44:37.401Z,25.30
2023-02-16T04:47:07.029Z,22.40
2023-02-16T04:49:36.933Z,23.10
2023-02-16T04:52:07.414Z,23.40
2023-02-16T04:54:37.308Z,21.00
2023-02-16T04:57:07.026Z,24.50
2023-02-16T04:59:36.811Z,24.30
2023-02-16T05:02:06.568Z,21.10
2023-02-16T05:04:36.456Z,21.00
2023-02-16T05:07:06.990Z,22.40
2023-02-16T05:09:37.863Z,18.90
2023-02-16T05:12:26.319Z,20.00
2023-02-16T05:14:56.550Z,20.50
2023-02-16T05:17:27.960Z,18.30
2023-02-16T05:20:01.964Z,18.30
2023-02-16T05:22:34.941Z,19.50
2023-02-16T05:27:36.173Z,16.90
2023-02-16T05:30:07.710Z,17.20
2023-02-16T05:32:36.930Z,18.10
2023-02-16T05:35:07.011Z,19.10
2023-02-16T05:37:36.586Z,18.90
2023-02-16T05:40:07.762Z,17.20
2023-02-16T05:42:37.048Z,16.00
2023-02-16T05:45:08.173Z,18.50
2023-02-16T05:47:38.084Z,19.90
2023-02-16T05:50:07.985Z,19.10
2023-02-16T05:52:37.152Z,20.60
2023-02-16T05:55:07.685Z,23.20
2023-02-16T05:57:37.599Z,27.10
2023-02-16T06:00:09.016Z,27.20
2023-02-16T06:05:09.645Z,25.70
2023-02-16T06:07:38.817Z,25.40
2023-02-16T06:10:10.575Z,22.60
2023-02-16T06:12:40.089Z,22.70
2023-02-16T06:15:10.747Z,23.60
2023-02-16T06:17:40.436Z,22.60
2023-02-16T06:20:11.336Z,19.50
2023-02-16T06:22:40.810Z,20.40
2023-02-16T06:25:10.925Z,21.50
2023-02-16T06:27:41.486Z,21.00
2023-02-16T06:30:12.928Z,20.80
2023-02-16T06:32:42.438Z,19.10
2023-02-16T06:35:12.525Z,20.10
2023-02-16T06:37:42.046Z,21.60
2023-02-16T06:40:16.721Z,19.90
2023-02-16T06:42:46.668Z,18.60
2023-02-16T06:45:16.690Z,17.80
2023-02-16T06:47:46.666Z,18.80
2023-02-16T06:50:18.318Z,16.10
2023-02-16T06:52:47.695Z,14.40
2023-02-16T06:55:17.845Z,18.20
2023-02-16T06:57:47.798Z,16.70
2023-02-16T07:00:17.629Z,16.70
2023-02-16T07:02:47.381Z,18.20
2023-02-16T07:05:18.001Z,18.20
2023-02-16T07:07:47.969Z,18.40
2023-02-16T07:10:18.582Z,16.90
2023-02-16T07:12:50.030Z,16.60
2023-02-16T07:15:20.885Z,18.00
2023-02-16T07:17:50.993Z,17.80
2023-02-16T07:20:21.422Z,18.50
2023-02-16T07:22:50.538Z,17.90
2023-02-16T07:25:20.107Z,19.00
2023-02-16T07:27:51.529Z,17.10
2023-02-16T07:30:21.816Z,16.60
2023-02-16T07:32:51.635Z,18.70
2023-02-16T07:35:23.363Z,18.60
2023-02-16T07:37:53.401Z,19.50
2023-02-16T07:40:23.188Z,22.70
2023-02-16T07:42:52.474Z,23.40
2023-02-16T07:45:22.338Z,23.70
2023-02-16T07:47:52.259Z,23.50
2023-02-16T07:50:21.753Z,22.60
2023-02-16T07:52:52.690Z,22.90
2023-02-16T07:55:22.286Z,22.90
2023-02-16T07:57:55.909Z,20.70
2023-02-16T08:00:27.374Z,22.80
2023-02-16T08:02:57.016Z,23.10
2023-02-16T08:05:27.356Z,23.90
2023-02-16T08:07:56.982Z,22.60
2023-02-16T08:10:27.125Z,17.50
2023-02-16T08:12:56.423Z,23.40
2023-02-16T08:15:26.553Z,19.40
2023-02-16T08:17:55.935Z,21.50
2023-02-16T08:20:43.181Z,23.20
2023-02-16T08:23:15.460Z,23.50
2023-02-16T08:25:46.436Z,22.70
2023-02-16T08:28:16.026Z,23.40
2023-02-16T08:30:45.248Z,22.10
2023-02-16T08:33:15.600Z,25.30
2023-02-16T08:35:45.615Z,19.10
2023-02-16T08:38:17.943Z,20.70
2023-02-16T08:40:51.896Z,16.50
2023-02-16T08:43:22.931Z,17.60
2023-02-16T08:45:53.757Z,20.40
2023-02-16T08:48:23.908Z,19.80
2023-02-16T08:50:55.403Z,17.90
2023-02-16T08:53:25.988Z,16.30
2023-02-16T08:55:59.975Z,18.80
2023-02-16T08:58:30.430Z,20.10
2023-02-16T09:01:06.348Z,20.20
2023-02-16T09:03:39.002Z,19.20
2023-02-16T09:06:10.675Z,19.90
2023-02-16T09:08:42.372Z,18.20
2023-02-16T09:11:14.636Z,19.10
2023-02-16T09:13:45.332Z,19.20
2023-02-16T09:16:18.657Z,22.30
2023-02-16T09:18:49.615Z,19.00
2023-02-16T09:21:23.392Z,17.20
2023-02-16T09:23:59.637Z,20.10
2023-02-16T09:26:33.601Z,21.40
2023-02-16T09:29:04.164Z,21.50
2023-02-16T09:31:37.687Z,19.70
2023-02-16T09:34:16.632Z,21.60
2023-02-16T09:36:47.874Z,20.60
2023-02-16T09:39:19.076Z,22.70
2023-02-16T09:42:05.501Z,24.70
2023-02-16T09:44:55.208Z,26.90
2023-02-16T09:47:31.419Z,23.40
2023-02-16T09:50:13.610Z,24.80
2023-02-16T09:53:10.262Z,24.60
2023-02-16T09:56:05.319Z,23.50
2023-02-16T09:59:13.350Z,30.00
2023-02-16T10:01:59.064Z,28.00
2023-02-16T10:04:31.905Z,25.30
2023-02-16T10:07:34.043Z,27.30
2023-02-16T10:10:08.941Z,24.80
2023-02-16T10:12:44.313Z,22.00
2023-02-16T10:15:20.481Z,26.10
2023-02-16T10:18:02.890Z,26.10
2023-02-16T10:20:38.042Z,23.30
2023-02-16T10:23:27.965Z,23.60
2023-02-16T10:26:14.082Z,24.90
2023-02-16T10:28:55.930Z,18.30
2023-02-16T10:31:31.671Z,20.00
2023-02-16T10:34:35.564Z,21.70
2023-02-16T10:37:28.765Z,19.40
2023-02-16T10:40:01.400Z,22.70
2023-02-16T10:42:44.668Z,20.70
2023-02-16T10:45:14.443Z,19.40
2023-02-16T10:47:47.696Z,22.90
2023-02-16T10:50:27.014Z,19.10
2023-02-16T10:53:13.255Z,22.20
2023-02-16T10:55:42.972Z,21.40
2023-02-16T10:58:27.125Z,23.30
2023-02-16T11:01:37.732Z,22.50
2023-02-16T11:04:36.391Z,21.90
2023-02-16T11:07:23.679Z,21.20
2023-02-16T11:09:56.111Z,18.90
2023-02-16T11:12:54.529Z,17.50
2023-02-16T11:15:27.366Z,19.10
2023-02-16T11:18:08.680Z,22.20
2023-02-16T11:20:48.182Z,20.90
2023-02-16T11:23:29.027Z,20.40
2023-02-16T11:26:10.620Z,20.30
2023-02-16T11:28:47.196Z,18.30
2023-02-16T11:31:22.002Z,21.40
2023-02-16T11:34:12.057Z,19.10
2023-02-16T11:37:16.062Z,15.10
2023-02-16T11:39:54.514Z,17.90
2023-02-16T11:42:44.584Z,19.30
2023-02-16T11:45:33.255Z,18.90
2023-02-16T11:48:07.745Z,20.50
2023-02-16T11:50:41.443Z,19.90
2023-02-16T11:53:12.048Z,21.00
2023-02-16T11:55:48.422Z,22.50
2023-02-16T11:58:20.296Z,18.50
2023-02-16T12:01:11.535Z,20.50
2023-02-16T12:03:58.408Z,20.30
2023-02-16T12:07:02.064Z,19.40
2023-02-16T12:09:31.729Z,19.50
2023-02-16T12:12:23.375Z,19.40
2023-02-16T12:15:40.591Z,19.60
2023-02-16T12:18:34.865Z,20.20
2023-02-16T12:21:07.559Z,18.60
2023-02-16T12:23:41.615Z,19.90
2023-02-16T12:26:41.066Z,19.00
2023-02-16T12:29:27.821Z,17.30
2023-02-16T12:32:25.351Z,18.10
2023-02-16T12:35:04.478Z,18.00
2023-02-16T12:37:58.175Z,18.10
2023-02-16T12:40:48.339Z,18.70
2023-02-16T12:43:20.683Z,17.70
2023-02-16T12:45:51.593Z,17.70
2023-02-16T12:48:37.928Z,19.10
2023-02-16T12:51:15.560Z,18.90
2023-02-16T12:53:59.632Z,17.50
2023-02-16T12:56:38.827Z,19.70
2023-02-16T12:59:33.946Z,22.20
2023-02-16T13:02:12.344Z,21.70
2023-02-16T13:04:53.463Z,24.90
2023-02-16T13:07:47.602Z,22.70
2023-02-16T13:10:35.395Z,21.20
2023-02-16T13:13:24.438Z,23.40
2023-02-16T13:16:01.948Z,24.70
2023-02-16T13:18:38.920Z,26.40
2023-02-16T13:21:22.899Z,27.40
2023-02-16T13:24:26.962Z,28.60
2023-02-16T13:27:21.999Z,29.70
2023-02-16T13:30:04.890Z,27.10
2023-02-16T13:32:52.902Z,27.60
2023-02-16T13:35:41.262Z,27.10
2023-02-16T13:38:32.620Z,24.80
2023-02-16T13:41:19.728Z,29.80
2023-02-16T13:44:03.867Z,28.00
2023-02-16T13:46:41.187Z,26.90
2023-02-16T13:49:38.909Z,25.40
2023-02-16T13:52:27.878Z,23.20
2023-02-16T13:55:29.176Z,25.50
2023-02-16T13:58:16.839Z,23.90
2023-02-16T14:00:50.047Z,23.90
2023-02-16T14:03:21.742Z,25.50
2023-02-16T14:05:56.742Z,24.80
2023-02-16T14:08:31.731Z,27.10
2023-02-16T14:11:11.377Z,26.90
2023-02-16T14:13:47.698Z,25.20
2023-02-16T14:16:32.948Z,23.20
2023-02-16T14:19:22.677Z,25.40
2023-02-16T14:21:55.485Z,24.70
2023-02-16T14:24:25.194Z,24.80
2023-02-16T14:26:59.849Z,24.10
2023-02-16T14:29:48.789Z,25.60
2023-02-16T14:32:41.283Z,27.50
2023-02-16T14:35:27.715Z,25.90
2023-02-16T14:38:00.645Z,24.80
2023-02-16T14:40:41.737Z,24.70
2023-02-16T14:43:55.850Z,27.60
2023-02-16T14:46:28.390Z,26.00
2023-02-16T14:49:35.642Z,25.30
2023-02-16T14:52:05.037Z,27.40
2023-02-16T14:55:24.453Z,25.90
2023-02-16T14:58:36.736Z,25.20
2023-02-16T15:01:17.963Z,25.50
2023-02-16T15:03:55.066Z,24.90
2023-02-16T15:06:25.133Z,24.00
2023-02-16T15:09:00.683Z,23.50
2023-02-16T15:12:02.000Z,25.30
2023-02-16T15:14:45.849Z,23.40
2023-02-16T15:17:31.995Z,24.80
2023-02-16T15:20:25.286Z,23.70
2023-02-16T15:23:01.737Z,24.60
2023-02-16T15:25:34.828Z,22.80
2023-02-16T15:28:11.206Z,22.80
2023-02-16T15:30:48.911Z,23.70
2023-02-16T15:33:34.776Z,22.10
2023-02-16T15:36:13.968Z,22.60
2023-02-16T15:38:57.725Z,22.70
2023-02-16T15:41:37.857Z,21.00
2023-02-16T15:44:36.173Z,23.50
2023-02-16T15:47:18.430Z,23.60
2023-02-16T15:52:36.207Z,22.10
2023-02-16T15:55:10.386Z,23.40
2023-02-16T15:57:41.785Z,20.50
2023-02-16T16:00:23.711Z,21.40
2023-02-16T16:02:58.860Z,21.00
2023-02-16T16:05:59.401Z,21.10
2023-02-16T16:08:30.851Z,20.40
2023-02-16T16:11:02.001Z,21.00
2023-02-16T16:13:32.949Z,20.60
2023-02-16T16:16:05.050Z,19.90
2023-02-16T16:18:39.570Z,23.00
2023-02-16T16:21:27.222Z,21.70
2023-02-16T16:24:51.803Z,21.90
2023-02-16T16:27:36.746Z,21.60
2023-02-16T16:30:24.437Z,22.80
2023-02-16T16:33:02.846Z,20.80
2023-02-16T16:35:48.583Z,22.70
2023-02-16T16:38:28.320Z,22.80
2023-02-16T16:41:03.263Z,24.10
2023-02-16T16:43:38.278Z,24.00
2023-02-16T16:46:18.637Z,24.70
2023-02-16T16:48:51.866Z,20.70
2023-02-16T16:51:24.562Z,23.70
2023-02-16T16:54:06.787Z,21.60
2023-02-16T16:56:42.295Z,22.70
2023-02-16T16:59:11.531Z,25.30
2023-02-16T17:01:41.983Z,27.60
2023-02-16T17:04:11.524Z,27.60
2023-02-16T17:06:41.782Z,24.10
2023-02-16T17:09:11.438Z,24.90
2023-02-16T17:11:41.213Z,25.30
2023-02-16T17:14:19.726Z,24.70
2023-02-16T17:16:53.468Z,25.90
2023-02-16T17:19:24.098Z,23.20
2023-02-16T17:21:53.836Z,23.70
2023-02-16T17:24:23.946Z,22.40
2023-02-16T17:26:53.595Z,20.00
2023-02-16T17:29:23.575Z,23.10
2023-02-16T17:31:52.977Z,21.20
2023-02-16T17:34:29.942Z,21.90
2023-02-16T17:37:07.932Z,24.10
2023-02-16T17:39:37.609Z,21.50
2023-02-16T17:42:12.238Z,21.70
2023-02-16T17:44:42.045Z,21.40
2023-02-16T17:47:16.562Z,20.20
2023-02-16T17:49:46.360Z,20.30
2023-02-16T17:52:16.032Z,19.90
2023-02-16T17:54:46.168Z,20.00
2023-02-16T17:57:15.951Z,20.40
2023-02-16T17:59:45.107Z,21.60
2023-02-16T18:02:14.808Z,20.00
2023-02-16T18:04:44.668Z,19.70
2023-02-16T18:07:17.593Z,20.30
2023-02-16T18:12:18.106Z,17.90
2023-02-16T18:14:47.782Z,23.70
2023-02-16T18:17:18.286Z,20.00
2023-02-16T18:19:48.837Z,19.00
2023-02-16T18:22:18.400Z,21.10
2023-02-16T18:24:48.642Z,20.10
2023-02-16T18:27:21.790Z,24.80
2023-02-16T18:29:52.325Z,20.80
2023-02-16T18:32:22.232Z,22.90
2023-02-16T18:34:52.375Z,22.00
2023-02-16T18:37:21.544Z,22.00
2023-02-16T18:39:51.561Z,20.30
2023-02-16T18:42:21.591Z,22.00
2023-02-16T18:44:52.481Z,21.30
2023-02-16T18:47:21.674Z,21.50
2023-02-16T18:49:53.236Z,19.40
2023-02-16T18:52:23.709Z,20.20
2023-02-16T18:54:53.339Z,21.00
2023-02-16T18:57:23.316Z,20.00
2023-02-16T18:59:53.709Z,20.60
2023-02-16T19:02:23.784Z,18.50
2023-02-16T19:04:53.275Z,19.60
2023-02-16T19:07:23.244Z,21.10
2023-02-16T19:09:53.545Z,21.30
2023-02-16T19:12:23.651Z,20.00
2023-02-16T19:14:56.400Z,20.60
2023-02-16T19:17:38.141Z,19.80
2023-02-16T19:20:18.945Z,20.60
2023-02-16T19:22:52.608Z,20.70
2023-02-16T19:25:24.990Z,19.10
2023-02-16T19:27:55.165Z,19.60
2023-02-16T19:30:25.799Z,18.50
2023-02-16T19:32:56.938Z,20.20
2023-02-16T19:35:28.826Z,17.40
2023-02-16T19:38:01.596Z,18.80
2023-02-16T19:40:32.584Z,18.60
2023-02-16T19:43:02.219Z,17.70
2023-02-16T19:45:32.625Z,18.70
2023-02-16T19:48:02.936Z,18.00
2023-02-16T19:50:32.506Z,20.10
2023-02-16T19:53:01.536Z,18.00
2023-02-16T19:55:31.131Z,20.70
2023-02-16T19:58:00.483Z,19.30
2023-02-16T20:00:30.812Z,19.40
2023-02-16T20:03:01.112Z,20.20
2023-02-16T20:05:31.963Z,18.60
2023-02-16T20:08:02.778Z,19.90
2023-02-16T20:10:34.612Z,21.50
2023-02-16T20:13:06.043Z,19.80
2023-02-16T20:15:35.665Z,19.50
2023-02-16T20:18:07.705Z,19.90
2023-02-16T20:20:37.289Z,22.60
2023-02-16T20:23:09.076Z,23.20
2023-02-16T20:25:40.505Z,23.20
2023-02-16T20:28:10.954Z,26.10
2023-02-16T20:30:42.987Z,24.30
2023-02-16T20:33:12.598Z,22.70
2023-02-16T20:35:43.249Z,22.40
2023-02-16T20:38:16.734Z,22.80
2023-02-16T20:40:46.954Z,22.60
2023-02-16T20:43:19.548Z,23.10
2023-02-16T20:45:49.737Z,21.50
2023-02-16T20:48:20.407Z,21.40
2023-02-16T20:51:09.170Z,21.50
2023-02-16T20:53:50.634Z,20.60
2023-02-16T20:56:28.121Z,22.90
2023-02-16T20:58:59.220Z,21.80
2023-02-16T21:01:33.035Z,23.60
2023-02-16T21:04:35.408Z,18.30
2023-02-16T21:07:05.721Z,19.30
2023-02-16T21:09:36.083Z,20.10
2023-02-16T21:12:05.889Z,22.10
2023-02-16T21:14:35.922Z,20.60
2023-02-16T21:17:05.852Z,21.40
2023-02-16T21:19:38.450Z,19.30
2023-02-16T21:22:09.284Z,19.30
2023-02-16T21:24:41.235Z,21.30
2023-02-16T21:29:41.463Z,16.40
2023-02-16T21:32:11.747Z,19.50
2023-02-16T21:34:41.440Z,19.60
2023-02-16T21:37:10.456Z,20.10
2023-02-16T21:40:01.551Z,21.50
2023-02-16T21:42:35.085Z,18.70
2023-02-16T21:45:14.576Z,15.60
2023-02-16T21:48:05.215Z,19.30
2023-02-16T21:50:39.428Z,19.90
2023-02-16T21:53:09.919Z,20.10
2023-02-16T21:55:59.350Z,17.90
2023-02-16T21:58:34.464Z,17.80
2023-02-16T22:01:04.313Z,16.30
2023-02-16T22:03:34.089Z,19.50
2023-02-16T22:06:07.018Z,17.60
2023-02-16T22:08:40.271Z,17.20
2023-02-16T22:11:12.300Z,18.40
2023-02-16T22:16:14.822Z,14.30
2023-02-16T22:18:45.390Z,16.20
2023-02-16T22:21:16.650Z,18.90
2023-02-16T22:23:46.010Z,16.00
2023-02-16T22:26:42.945Z,20.30
2023-02-16T22:29:12.959Z,21.80
2023-02-16T22:31:50.050Z,21.70
2023-02-16T22:34:24.216Z,22.50
2023-02-16T22:36:53.986Z,21.90
2023-02-16T22:39:23.525Z,20.80
2023-02-16T22:41:52.503Z,21.50
2023-02-16T22:44:23.087Z,21.50
2023-02-16T22:46:55.068Z,21.90
2023-02-16T22:49:24.585Z,18.70
2023-02-16T22:51:55.170Z,14.40
2023-02-16T22:54:25.259Z,21.00
2023-02-16T22:56:59.346Z,20.60
2023-02-16T22:59:29.506Z,19.00
2023-02-16T23:01:59.986Z,20.40
2023-02-16T23:04:30.801Z,19.60
2023-02-16T23:07:00.829Z,21.50
2023-02-16T23:09:30.837Z,21.20
2023-02-16T23:12:00.397Z,20.30
2023-02-16T23:14:30.768Z,20.70
2023-02-16T23:17:00.460Z,19.80
2023-02-16T23:19:30.466Z,20.20
2023-02-16T23:22:00.992Z,20.80
2023-02-16T23:24:30.705Z,19.80
2023-02-16T23:27:00.138Z,19.10
2023-02-16T23:29:30.055Z,23.40
2023-02-16T23:31:59.715Z,20.10
2023-02-16T23:34:34.115Z,18.20
2023-02-16T23:37:03.628Z,20.00
2023-02-16T23:39:33.318Z,20.50
2023-02-16T23:42:03.364Z,20.80
2023-02-16T23:44:32.694Z,20.80
2023-02-16T23:47:03.064Z,18.10
2023-02-16T23:49:33.507Z,19.10
2023-02-16T23:52:03.283Z,13.60
2023-02-16T23:54:37.823Z,16.60
2023-02-16T23:57:08.411Z,17.30
2023-02-16T23:59:38.072Z,16.80
